Weather at Whetstone International Airport

Public forecast

Using degrees Fahrenheit for public forecast. Weather courtesy of forecast.io.

Closest aviation weather report (METAR) to Whetstone International Airport

Closest report is Cut Bank International Airport, 28.5 nm (52.7 km) SE.

2024/07/15 14:56 (retrieved 11 minutes ago)

KCTB 151456Z AUTO 13007KT 10SM CLR 19/12 A3003 RMK AO2 SLP140 T01940117 58011

Closest aviation forecast (TAF) to Whetstone International Airport

Closest forecast is Cut Bank International Airport, 28.5 nm (52.7 km) SE.

2024/07/15 12:39 (retrieved 2 hours ago)

TAF KCTB 151136Z 1512/1612 16008KT P6SM SCT090 FM151800 25011KT P6SM SCT080 SCT180 FM152100 32013G21KT P6SM BKN070 BKN150 FM160300 01008KT P6SM SCT080 BKN120